Terminal Aerodrome Forecast
Issued by NWS

Home | Current Version | Previous Version | Text Only | Print | Product List | Glossary On
Versions: 1 2 3 4 5 6 7 8 9 10 11 12 13
000
FTUS45 KLKN 201731
TAFWMC
TAF
KWMC 201731Z 2018/2118 18010KT P6SM BKN060 BKN100
     FM202000 25020G35KT P6SM BKN050 BKN080
     FM210200 29018G30KT P6SM -RA BKN040 OVC080
     FM210600 33014G25KT P6SM -RA BKN030 OVC050
     FM211200 33012G20KT P6SM VCSH SCT030 BKN050=

USA.gov is the U.S. government's official web portal to all federal, state and local government web resources and services.